createdAt,value
2023-03-17T00:00:23.738Z,24.10
2023-03-17T00:00:56.459Z,23.77
2023-03-17T00:01:28.083Z,24.10
2023-03-17T00:01:59.765Z,23.10
2023-03-17T00:02:31.587Z,22.13
2023-03-17T00:03:06.779Z,23.87
2023-03-17T00:03:41.875Z,25.97
2023-03-17T00:04:14.057Z,25.50
2023-03-17T00:04:45.910Z,26.50
2023-03-17T00:05:33.276Z,29.20
2023-03-17T00:06:06.327Z,30.53
2023-03-17T00:06:38.995Z,29.43
2023-03-17T00:07:17.187Z,33.30
2023-03-17T00:07:51.014Z,41.70
2023-03-17T00:08:27.312Z,40.67
2023-03-17T00:08:58.970Z,34.73
2023-03-17T00:09:30.616Z,31.53
2023-03-17T00:10:02.306Z,28.80
2023-03-17T00:10:34.030Z,28.63
2023-03-17T00:11:11.572Z,29.83
2023-03-17T00:11:45.039Z,28.93
2023-03-17T00:12:17.854Z,28.70
2023-03-17T00:12:51.665Z,28.63
2023-03-17T00:13:24.005Z,26.30
2023-03-17T00:13:55.716Z,24.17
2023-03-17T00:14:27.368Z,22.77
2023-03-17T00:14:59.024Z,22.40
2023-03-17T00:15:30.697Z,23.63
2023-03-17T00:16:05.312Z,24.20
2023-03-17T00:16:39.827Z,23.43
2023-03-17T00:17:14.211Z,22.77
2023-03-17T00:17:47.590Z,24.03
2023-03-17T00:18:21.078Z,24.67
2023-03-17T00:18:55.464Z,22.53
2023-03-17T00:19:33.717Z,21.70
2023-03-17T00:20:06.809Z,20.80
2023-03-17T00:20:39.488Z,22.27
2023-03-17T00:21:15.022Z,21.90
2023-03-17T00:21:47.172Z,21.40
2023-03-17T00:22:19.842Z,21.73
2023-03-17T00:22:52.089Z,24.97
2023-03-17T00:23:25.464Z,52.13
2023-03-17T00:23:59.509Z,74.57
2023-03-17T00:24:31.249Z,78.63
2023-03-17T00:25:02.965Z,77.97
2023-03-17T00:25:35.081Z,70.23
2023-03-17T00:26:07.133Z,68.47
2023-03-17T00:26:38.886Z,62.83
2023-03-17T00:27:13.989Z,56.17
2023-03-17T00:27:45.688Z,52.13
2023-03-17T00:28:26.187Z,45.30
2023-03-17T00:28:57.903Z,36.83
2023-03-17T00:29:29.735Z,33.90
2023-03-17T00:30:01.409Z,31.13
2023-03-17T00:30:33.059Z,30.27
2023-03-17T00:31:15.022Z,29.73
2023-03-17T00:31:46.851Z,29.63
2023-03-17T00:32:21.296Z,30.03
2023-03-17T00:32:57.601Z,29.67
2023-03-17T00:33:33.373Z,31.47
2023-03-17T00:34:05.971Z,32.37
2023-03-17T00:34:37.913Z,33.03
2023-03-17T00:35:17.935Z,32.53
2023-03-17T00:35:49.891Z,31.33
2023-03-17T00:36:31.599Z,35.50
2023-03-17T00:37:04.298Z,43.67
2023-03-17T00:37:35.941Z,43.63
2023-03-17T00:38:15.091Z,42.67
2023-03-17T00:38:47.231Z,39.93
2023-03-17T00:39:19.387Z,36.87
2023-03-17T00:39:51.533Z,35.97
2023-03-17T00:40:26.705Z,35.00
2023-03-17T00:40:58.732Z,35.27
2023-03-17T00:41:30.646Z,37.27
2023-03-17T00:42:02.574Z,39.23
2023-03-17T00:42:34.208Z,38.27
2023-03-17T00:43:05.986Z,38.33
2023-03-17T00:43:38.172Z,37.77
2023-03-17T00:44:10.107Z,37.90
2023-03-17T00:44:41.756Z,37.07
2023-03-17T00:45:14.436Z,38.00
2023-03-17T00:45:47.040Z,39.13
2023-03-17T00:46:25.156Z,41.13
2023-03-17T00:46:57.781Z,38.50
2023-03-17T00:47:29.497Z,36.13
2023-03-17T00:48:01.877Z,33.00
2023-03-17T00:48:33.573Z,30.40
2023-03-17T00:49:48.317Z,27.67
2023-03-17T00:50:22.986Z,27.23
2023-03-17T00:50:55.240Z,25.93
2023-03-17T00:51:27.095Z,26.70
2023-03-17T00:51:58.801Z,27.23
2023-03-17T00:52:31.026Z,27.70
2023-03-17T00:53:03.644Z,26.70
2023-03-17T00:53:36.044Z,26.40
2023-03-17T00:54:10.488Z,29.23
2023-03-17T00:54:42.432Z,31.37
2023-03-17T00:55:14.496Z,30.43
2023-03-17T00:55:47.838Z,31.50
2023-03-17T00:56:21.318Z,32.30
2023-03-17T00:56:52.989Z,30.93
2023-03-17T00:57:24.733Z,30.93
2023-03-17T00:57:56.557Z,30.77
2023-03-17T00:58:34.271Z,30.47
2023-03-17T00:59:19.462Z,27.20
2023-03-17T00:59:51.406Z,24.17
2023-03-17T01:00:29.544Z,24.70
2023-03-17T01:01:02.318Z,25.63
2023-03-17T01:01:34.074Z,28.87
2023-03-17T01:02:05.944Z,29.53
2023-03-17T01:02:37.654Z,28.63
2023-03-17T01:03:12.636Z,26.07
2023-03-17T01:03:44.683Z,25.37
2023-03-17T01:04:16.558Z,27.87
2023-03-17T01:04:59.539Z,27.80
2023-03-17T01:05:35.567Z,25.57
2023-03-17T01:06:11.066Z,26.37
2023-03-17T01:06:43.376Z,27.37
2023-03-17T01:07:15.477Z,27.47
2023-03-17T01:07:53.000Z,27.37
2023-03-17T01:08:26.058Z,30.43
2023-03-17T01:08:57.972Z,37.50
2023-03-17T01:09:30.904Z,42.90
2023-03-17T01:10:03.341Z,46.47
2023-03-17T01:10:36.144Z,52.53
2023-03-17T01:11:16.180Z,65.70
2023-03-17T01:11:48.732Z,69.33
2023-03-17T01:12:20.708Z,67.07
2023-03-17T01:12:54.429Z,58.90
2023-03-17T01:13:26.381Z,53.70
2023-03-17T01:13:58.909Z,51.87
2023-03-17T01:14:30.716Z,56.03
2023-03-17T01:15:02.402Z,59.80
2023-03-17T01:15:34.419Z,58.13
2023-03-17T01:16:10.202Z,56.73
2023-03-17T01:16:42.508Z,56.63
2023-03-17T01:17:18.288Z,53.43
2023-03-17T01:17:51.321Z,52.13
2023-03-17T01:18:23.971Z,48.87
2023-03-17T01:18:55.804Z,46.73
2023-03-17T01:19:27.526Z,46.00
2023-03-17T01:19:59.461Z,49.03
2023-03-17T01:20:33.659Z,49.60
2023-03-17T01:21:05.580Z,51.47
2023-03-17T01:21:37.260Z,49.67
2023-03-17T01:22:09.817Z,44.93
2023-03-17T01:22:41.988Z,42.53
2023-03-17T01:23:13.726Z,41.03
2023-03-17T01:23:45.431Z,39.97
2023-03-17T01:24:17.093Z,42.67
2023-03-17T01:24:48.752Z,44.20
2023-03-17T01:25:20.385Z,48.97
2023-03-17T01:25:52.035Z,63.20
2023-03-17T01:26:25.992Z,77.67
2023-03-17T01:26:57.741Z,86.20
2023-03-17T01:27:33.658Z,98.50
2023-03-17T01:28:05.801Z,123.33
2023-03-17T01:28:37.833Z,135.20
2023-03-17T01:29:09.703Z,134.30
2023-03-17T01:29:41.364Z,112.30
2023-03-17T01:30:23.952Z,87.43
2023-03-17T01:30:56.791Z,61.57
2023-03-17T01:31:28.713Z,52.30
2023-03-17T01:32:00.457Z,44.17
2023-03-17T01:32:32.818Z,39.83
2023-03-17T01:33:06.660Z,40.37
2023-03-17T01:33:38.671Z,41.70
2023-03-17T01:34:10.325Z,41.83
2023-03-17T01:34:41.986Z,41.73
2023-03-17T01:35:14.403Z,41.50
2023-03-17T01:35:46.138Z,41.60
2023-03-17T01:36:17.924Z,40.27
2023-03-17T01:36:50.217Z,38.20
2023-03-17T01:37:22.198Z,36.87
2023-03-17T01:37:53.877Z,36.27
2023-03-17T01:38:25.637Z,36.43
2023-03-17T01:38:57.333Z,36.03
2023-03-17T01:39:29.005Z,36.67
2023-03-17T01:40:00.679Z,36.80
2023-03-17T01:40:35.893Z,40.23
2023-03-17T01:41:07.672Z,41.67
2023-03-17T01:41:40.250Z,42.53
2023-03-17T01:42:12.263Z,43.90
2023-03-17T01:43:00.383Z,44.17
2023-03-17T01:43:32.613Z,46.20
2023-03-17T01:44:04.673Z,46.77
2023-03-17T01:44:37.164Z,46.90
2023-03-17T01:45:47.507Z,46.33
2023-03-17T01:46:32.647Z,40.77
2023-03-17T01:47:04.375Z,39.77
2023-03-17T01:47:36.191Z,38.77
2023-03-17T01:48:09.168Z,35.20
2023-03-17T01:49:04.665Z,34.67
2023-03-17T01:49:38.813Z,33.23
2023-03-17T01:50:11.155Z,31.20
2023-03-17T01:50:46.736Z,29.43
2023-03-17T01:51:29.853Z,29.43
2023-03-17T01:52:14.350Z,28.23
2023-03-17T01:52:48.077Z,27.00
2023-03-17T01:53:22.502Z,26.23
2023-03-17T01:53:55.585Z,27.53
2023-03-17T01:54:42.076Z,26.63
2023-03-17T01:55:17.724Z,25.63
2023-03-17T01:55:52.792Z,25.57
2023-03-17T01:56:24.774Z,25.63
2023-03-17T01:57:03.849Z,25.90
2023-03-17T01:57:41.339Z,26.07
2023-03-17T01:58:17.089Z,23.73
2023-03-17T01:58:53.250Z,24.23
2023-03-17T01:59:31.741Z,23.10
2023-03-17T02:00:09.251Z,23.77
2023-03-17T02:00:41.095Z,23.40
2023-03-17T02:01:14.213Z,21.70
2023-03-17T02:01:51.458Z,21.53
2023-03-17T02:02:34.660Z,21.60
2023-03-17T02:03:06.333Z,21.70
2023-03-17T02:03:38.989Z,22.40
2023-03-17T02:04:12.013Z,23.23
2023-03-17T02:04:43.729Z,22.77
2023-03-17T02:05:19.949Z,22.87
2023-03-17T02:05:52.653Z,24.13
2023-03-17T02:06:25.696Z,23.93
2023-03-17T02:06:58.953Z,21.97
2023-03-17T02:07:31.440Z,22.30
2023-03-17T02:08:11.238Z,22.87
2023-03-17T02:08:44.184Z,22.27
2023-03-17T02:09:15.896Z,22.30
2023-03-17T02:09:48.190Z,22.43
2023-03-17T02:10:21.882Z,20.97
2023-03-17T02:10:57.295Z,21.40
2023-03-17T02:11:30.586Z,21.60
2023-03-17T02:12:03.958Z,21.87
2023-03-17T02:12:36.450Z,21.87
2023-03-17T02:13:13.058Z,21.13
2023-03-17T02:13:44.808Z,21.67
2023-03-17T02:14:16.592Z,21.40
2023-03-17T02:14:48.274Z,22.27
2023-03-17T02:15:19.952Z,21.80
2023-03-17T02:15:52.981Z,20.70
2023-03-17T02:16:25.064Z,21.03
2023-03-17T02:16:57.433Z,21.10
2023-03-17T02:17:29.499Z,20.37
2023-03-17T02:18:01.176Z,20.83
2023-03-17T02:18:34.190Z,20.77
2023-03-17T02:19:05.920Z,22.43
2023-03-17T02:19:37.615Z,21.07
2023-03-17T02:20:17.615Z,20.30
2023-03-17T02:20:49.212Z,21.53
2023-03-17T02:21:43.810Z,20.63
2023-03-17T02:22:17.759Z,20.97
2023-03-17T02:22:54.840Z,23.60
2023-03-17T02:23:26.625Z,27.27
2023-03-17T02:24:02.596Z,30.27
2023-03-17T02:24:44.316Z,41.40
2023-03-17T02:25:17.531Z,45.70
2023-03-17T02:25:51.825Z,41.63
2023-03-17T02:26:26.088Z,40.87
2023-03-17T02:27:21.319Z,42.97
2023-03-17T02:27:59.982Z,37.13
2023-03-17T02:28:31.790Z,35.40
2023-03-17T02:29:05.356Z,48.67
2023-03-17T02:29:37.894Z,63.30
2023-03-17T02:30:12.241Z,68.83
2023-03-17T02:30:44.873Z,77.93
2023-03-17T02:31:17.504Z,87.87
2023-03-17T02:31:49.708Z,109.37
2023-03-17T02:32:21.404Z,164.70
2023-03-17T02:32:53.122Z,216.40
2023-03-17T02:33:25.339Z,248.40
2023-03-17T02:33:57.062Z,270.00
2023-03-17T02:34:29.535Z,281.10
2023-03-17T02:35:01.777Z,283.60
2023-03-17T02:35:33.462Z,271.50
2023-03-17T02:36:05.315Z,266.37
2023-03-17T02:36:37.666Z,262.00
2023-03-17T02:37:09.738Z,266.43
2023-03-17T02:37:43.660Z,262.50
2023-03-17T02:38:15.380Z,246.17
2023-03-17T02:38:47.517Z,224.77
2023-03-17T02:39:19.297Z,207.77
2023-03-17T02:39:50.937Z,197.60
2023-03-17T02:40:24.352Z,184.93
2023-03-17T02:40:56.051Z,162.50
2023-03-17T02:41:27.740Z,149.83
2023-03-17T02:42:00.062Z,138.03
2023-03-17T02:42:33.378Z,125.07
2023-03-17T02:43:05.742Z,112.80
2023-03-17T02:43:37.463Z,106.13
2023-03-17T02:44:09.365Z,97.83
2023-03-17T02:44:41.193Z,85.90
2023-03-17T02:45:13.668Z,77.57
2023-03-17T02:45:45.368Z,76.27
2023-03-17T02:46:17.104Z,71.50
2023-03-17T02:46:48.791Z,70.53
2023-03-17T02:47:21.668Z,68.70
2023-03-17T02:47:55.226Z,69.20
2023-03-17T02:48:27.342Z,63.57
2023-03-17T02:49:00.715Z,55.47
2023-03-17T02:49:34.033Z,54.63
2023-03-17T02:50:07.510Z,52.93
2023-03-17T02:50:39.237Z,50.90
2023-03-17T02:51:10.982Z,49.60
2023-03-17T02:51:43.288Z,48.90
2023-03-17T02:52:15.018Z,49.03
2023-03-17T02:52:46.661Z,48.57
2023-03-17T02:53:18.337Z,47.43
2023-03-17T02:53:50.236Z,47.17
2023-03-17T02:54:22.168Z,44.27
2023-03-17T02:54:53.953Z,43.17
2023-03-17T02:55:27.139Z,39.03
2023-03-17T02:55:58.826Z,37.93
2023-03-17T02:56:31.473Z,36.07
2023-03-17T02:57:03.405Z,32.83
2023-03-17T02:57:35.124Z,31.50
2023-03-17T02:58:06.848Z,30.60
2023-03-17T02:58:38.565Z,29.90
2023-03-17T02:59:11.123Z,30.13
2023-03-17T02:59:43.290Z,29.83
2023-03-17T03:00:15.481Z,27.53
2023-03-17T03:00:48.851Z,25.90
2023-03-17T03:01:21.307Z,27.53
2023-03-17T03:01:53.085Z,26.57
2023-03-17T03:02:24.779Z,26.80
2023-03-17T03:02:56.906Z,27.83
2023-03-17T03:03:28.665Z,26.93
2023-03-17T03:04:00.333Z,27.03
2023-03-17T03:04:32.735Z,26.33
2023-03-17T03:05:05.607Z,27.90
2023-03-17T03:05:37.603Z,27.17
2023-03-17T03:06:09.399Z,29.47
2023-03-17T03:06:42.576Z,27.83
2023-03-17T03:07:14.297Z,28.07
2023-03-17T03:07:45.941Z,27.73
2023-03-17T03:08:17.709Z,26.70
2023-03-17T03:08:50.558Z,26.13
2023-03-17T03:09:22.356Z,26.47
2023-03-17T03:09:54.010Z,26.13
2023-03-17T03:10:25.907Z,25.17
2023-03-17T03:10:57.613Z,25.00
2023-03-17T03:11:29.533Z,24.13
2023-03-17T03:12:01.165Z,24.63
2023-03-17T03:12:32.897Z,24.87
2023-03-17T03:13:04.670Z,23.90
2023-03-17T03:13:37.194Z,24.30
2023-03-17T03:14:08.855Z,23.90
2023-03-17T03:14:41.016Z,23.90
2023-03-17T03:15:12.745Z,23.00
2023-03-17T03:15:44.475Z,22.77
2023-03-17T03:16:16.659Z,22.53
2023-03-17T03:16:48.771Z,22.97
2023-03-17T03:17:21.119Z,22.47
2023-03-17T03:17:52.812Z,21.40
2023-03-17T03:18:24.817Z,20.07
2023-03-17T03:18:56.554Z,20.90
2023-03-17T03:19:28.371Z,21.43
2023-03-17T03:20:00.178Z,21.80
2023-03-17T03:20:32.458Z,23.63
2023-03-17T03:21:05.026Z,26.57
2023-03-17T03:21:37.193Z,27.90
2023-03-17T03:22:08.923Z,27.10
2023-03-17T03:22:40.715Z,26.23
2023-03-17T03:23:13.082Z,27.97
2023-03-17T03:23:44.769Z,29.70
2023-03-17T03:24:16.572Z,28.30
2023-03-17T03:24:48.262Z,27.23
2023-03-17T03:25:19.994Z,25.87
2023-03-17T03:25:51.722Z,24.87
2023-03-17T03:26:23.592Z,24.13
2023-03-17T03:26:55.226Z,22.70
2023-03-17T03:27:26.857Z,22.13
2023-03-17T03:27:58.613Z,23.03
2023-03-17T03:28:30.786Z,23.37
2023-03-17T03:29:02.520Z,22.77
2023-03-17T03:29:34.478Z,23.43
2023-03-17T03:30:08.277Z,21.77
2023-03-17T03:30:40.038Z,21.83
2023-03-17T03:31:11.919Z,22.07
2023-03-17T03:31:43.643Z,22.47
2023-03-17T03:32:15.338Z,23.17
2023-03-17T03:32:47.784Z,21.77
2023-03-17T03:33:19.714Z,20.73
2023-03-17T03:33:51.663Z,20.60
2023-03-17T03:34:23.348Z,21.47
2023-03-17T03:34:55.055Z,19.63
2023-03-17T03:35:26.782Z,19.47
2023-03-17T03:35:59.426Z,19.37
2023-03-17T03:36:31.181Z,18.67
2023-03-17T03:37:02.867Z,19.13
2023-03-17T03:37:34.667Z,19.23
2023-03-17T03:38:07.663Z,19.33
2023-03-17T03:38:39.565Z,22.53
2023-03-17T03:39:14.207Z,22.77
2023-03-17T03:39:46.499Z,21.57
2023-03-17T03:40:18.249Z,19.40
2023-03-17T03:40:49.983Z,18.30
2023-03-17T03:41:21.903Z,18.30
2023-03-17T03:41:57.339Z,19.00
2023-03-17T03:42:29.007Z,18.70
2023-03-17T03:43:07.525Z,18.40
2023-03-17T03:43:44.673Z,19.10
2023-03-17T03:44:16.357Z,19.10
2023-03-17T03:44:48.017Z,19.47
2023-03-17T03:45:19.730Z,20.90
2023-03-17T03:45:51.761Z,21.83
2023-03-17T03:46:23.564Z,20.60
2023-03-17T03:46:55.282Z,21.20
2023-03-17T03:47:26.953Z,21.17
2023-03-17T03:47:58.771Z,21.83
2023-03-17T03:48:30.468Z,21.47
2023-03-17T03:49:02.181Z,20.60
2023-03-17T03:49:33.903Z,19.77
2023-03-17T03:50:06.805Z,19.90
2023-03-17T03:50:38.818Z,18.40
2023-03-17T03:51:10.558Z,18.10
2023-03-17T03:51:42.212Z,19.30
2023-03-17T03:52:13.902Z,21.43
2023-03-17T03:52:45.553Z,24.97
2023-03-17T03:53:17.256Z,25.57
2023-03-17T03:53:49.030Z,23.90
2023-03-17T03:54:20.805Z,23.57
2023-03-17T03:54:52.836Z,24.17
2023-03-17T03:55:24.545Z,26.37
2023-03-17T03:55:56.984Z,27.90
2023-03-17T03:56:28.667Z,28.83
2023-03-17T03:57:00.565Z,29.07
2023-03-17T03:57:32.227Z,27.13
2023-03-17T03:58:03.922Z,26.23
2023-03-17T03:58:35.725Z,24.93
2023-03-17T03:59:07.631Z,25.27
2023-03-17T03:59:39.437Z,24.70
2023-03-17T04:00:13.943Z,24.77
2023-03-17T04:00:46.725Z,24.63
2023-03-17T04:01:18.852Z,23.73
2023-03-17T04:01:50.593Z,23.30
2023-03-17T04:02:22.301Z,23.00
2023-03-17T04:02:54.114Z,22.50
2023-03-17T04:03:25.914Z,21.97
2023-03-17T04:03:57.562Z,22.23
2023-03-17T04:04:29.819Z,22.10
2023-03-17T04:05:01.930Z,19.90
2023-03-17T04:05:33.728Z,19.53
2023-03-17T04:06:06.284Z,19.83
2023-03-17T04:06:37.952Z,18.83
2023-03-17T04:07:10.036Z,18.07
2023-03-17T04:07:43.211Z,18.43
2023-03-17T04:08:14.902Z,17.53
2023-03-17T04:08:46.579Z,16.87
2023-03-17T04:09:18.242Z,17.70
2023-03-17T04:09:49.940Z,18.33
2023-03-17T04:10:21.744Z,17.87
2023-03-17T04:10:53.409Z,17.23
2023-03-17T04:11:25.248Z,17.93
2023-03-17T04:11:56.905Z,19.33
2023-03-17T04:12:28.564Z,17.90
2023-03-17T04:13:00.689Z,17.67
2023-03-17T04:13:32.343Z,17.97
2023-03-17T04:14:04.238Z,18.00
2023-03-17T04:14:36.481Z,17.73
2023-03-17T04:15:09.462Z,16.67
2023-03-17T04:15:41.493Z,16.87
2023-03-17T04:16:13.191Z,17.33
2023-03-17T04:16:44.829Z,17.50
2023-03-17T04:17:16.926Z,17.37
2023-03-17T04:17:48.839Z,17.73
2023-03-17T04:18:20.509Z,18.00
2023-03-17T04:18:52.253Z,18.60
2023-03-17T04:19:24.032Z,17.70
2023-03-17T04:19:56.068Z,17.60
2023-03-17T04:20:27.831Z,17.10
2023-03-17T04:20:59.825Z,17.43
2023-03-17T04:21:31.978Z,17.53
2023-03-17T04:22:04.463Z,17.20
2023-03-17T04:22:36.184Z,17.03
2023-03-17T04:23:07.988Z,16.73
2023-03-17T04:23:39.700Z,17.03
2023-03-17T04:24:11.344Z,16.93
2023-03-17T04:24:42.999Z,16.50
2023-03-17T04:25:15.661Z,16.47
2023-03-17T04:25:47.572Z,16.77
2023-03-17T04:26:19.509Z,17.83
2023-03-17T04:26:51.988Z,19.30
2023-03-17T04:27:24.041Z,19.20
2023-03-17T04:27:55.705Z,18.93
2023-03-17T04:28:27.427Z,18.80
2023-03-17T04:28:59.072Z,17.27
2023-03-17T04:29:32.023Z,17.47
2023-03-17T04:30:04.632Z,17.03
2023-03-17T04:30:36.643Z,16.03
2023-03-17T04:31:12.384Z,17.10
2023-03-17T04:31:44.199Z,15.93
2023-03-17T04:32:15.981Z,15.93
2023-03-17T04:32:47.727Z,15.60
2023-03-17T04:33:20.329Z,15.43
2023-03-17T04:33:52.226Z,16.23
2023-03-17T04:34:24.193Z,16.27
2023-03-17T04:34:56.086Z,16.03
2023-03-17T04:35:28.031Z,16.23
2023-03-17T04:35:59.771Z,16.17
2023-03-17T04:36:31.472Z,16.07
2023-03-17T04:37:03.157Z,16.10
2023-03-17T04:37:34.814Z,16.17
2023-03-17T04:38:06.907Z,16.43
2023-03-17T04:38:38.525Z,17.07
2023-03-17T04:39:10.982Z,17.53
2023-03-17T04:39:42.658Z,16.90
2023-03-17T04:40:15.850Z,16.23
2023-03-17T04:40:47.548Z,16.03
2023-03-17T04:41:19.811Z,16.27
2023-03-17T04:41:51.698Z,16.27
2023-03-17T04:42:23.432Z,16.43
2023-03-17T04:42:55.097Z,16.97
2023-03-17T04:43:27.180Z,16.40
2023-03-17T04:43:58.822Z,16.03
2023-03-17T04:44:30.936Z,16.03
2023-03-17T04:45:06.846Z,15.17
2023-03-17T04:45:38.905Z,15.13
2023-03-17T04:46:11.029Z,15.23
2023-03-17T04:46:42.753Z,15.43
2023-03-17T04:47:14.441Z,15.40
2023-03-17T04:47:46.469Z,15.30
2023-03-17T04:48:18.117Z,16.00
2023-03-17T04:48:49.783Z,15.33
2023-03-17T04:49:21.887Z,15.10
2023-03-17T04:49:54.051Z,15.47
2023-03-17T04:50:26.565Z,15.70
2023-03-17T04:50:58.662Z,15.40
2023-03-17T04:51:30.604Z,15.17
2023-03-17T04:52:02.539Z,15.40
2023-03-17T04:52:34.583Z,14.97
2023-03-17T04:53:06.827Z,15.53
2023-03-17T04:53:38.536Z,15.23
2023-03-17T04:54:11.330Z,15.03
2023-03-17T04:54:43.177Z,14.80
2023-03-17T04:55:14.956Z,14.17
2023-03-17T04:55:47.149Z,14.37
2023-03-17T04:56:19.105Z,14.33
2023-03-17T04:56:50.863Z,15.33
2023-03-17T04:57:24.268Z,15.47
2023-03-17T04:57:56.023Z,14.17
2023-03-17T04:58:30.831Z,14.47
2023-03-17T04:59:03.471Z,15.73
2023-03-17T04:59:35.374Z,15.23
2023-03-17T05:00:08.502Z,14.90
2023-03-17T05:00:40.459Z,15.73
2023-03-17T05:01:12.239Z,15.93
2023-03-17T05:01:44.278Z,15.63
2023-03-17T05:02:16.022Z,14.63
2023-03-17T05:02:47.749Z,15.00
2023-03-17T05:03:26.395Z,15.17
2023-03-17T05:03:59.144Z,15.20
2023-03-17T05:04:32.224Z,15.63
2023-03-17T05:05:04.648Z,15.80
2023-03-17T05:05:36.703Z,14.47
2023-03-17T05:06:08.582Z,14.87
2023-03-17T05:06:40.702Z,13.93
2023-03-17T05:07:13.437Z,13.97
2023-03-17T05:07:45.086Z,14.03
2023-03-17T05:08:17.218Z,14.43
2023-03-17T05:08:48.917Z,14.83
2023-03-17T05:09:20.925Z,15.27
2023-03-17T05:09:52.598Z,15.33
2023-03-17T05:10:24.483Z,14.77
2023-03-17T05:10:57.614Z,14.57
2023-03-17T05:11:29.401Z,14.87
2023-03-17T05:12:01.093Z,15.53
2023-03-17T05:12:32.787Z,14.97
2023-03-17T05:13:04.425Z,15.73
2023-03-17T05:13:36.094Z,14.67
2023-03-17T05:14:07.745Z,14.40
2023-03-17T05:14:39.530Z,14.63
2023-03-17T05:15:11.429Z,14.00
2023-03-17T05:15:51.763Z,14.63
2023-03-17T05:16:23.553Z,15.70
2023-03-17T05:16:55.392Z,15.27
2023-03-17T05:17:27.094Z,15.20
2023-03-17T05:17:58.793Z,15.33
2023-03-17T05:18:30.641Z,13.87
2023-03-17T05:19:02.370Z,13.70
2023-03-17T05:19:34.187Z,13.73
2023-03-17T05:20:06.376Z,15.27
2023-03-17T05:20:38.069Z,14.83
2023-03-17T05:21:10.331Z,14.50
2023-03-17T05:21:42.705Z,15.00
2023-03-17T05:22:14.365Z,15.10
2023-03-17T05:22:46.589Z,16.03
2023-03-17T05:23:18.282Z,15.30
2023-03-17T05:23:50.338Z,14.90
2023-03-17T05:24:22.078Z,14.90
2023-03-17T05:24:53.788Z,13.87
2023-03-17T05:25:25.678Z,14.90
2023-03-17T05:25:57.406Z,15.00
2023-03-17T05:26:29.507Z,14.50
2023-03-17T05:27:01.160Z,14.30
2023-03-17T05:27:33.329Z,14.00
2023-03-17T05:28:05.058Z,14.17
2023-03-17T05:28:37.006Z,14.43
2023-03-17T05:29:09.072Z,15.70
2023-03-17T05:29:40.711Z,18.10
2023-03-17T05:30:12.807Z,21.77
2023-03-17T05:30:44.553Z,21.00
2023-03-17T05:31:16.349Z,18.77
2023-03-17T05:31:48.533Z,20.20
2023-03-17T05:32:21.007Z,19.20
2023-03-17T05:32:52.688Z,19.23
2023-03-17T05:33:25.153Z,19.57
2023-03-17T05:33:57.304Z,18.33
2023-03-17T05:34:28.943Z,18.20
2023-03-17T05:35:01.253Z,18.63
2023-03-17T05:35:32.997Z,17.80
2023-03-17T05:36:05.269Z,17.80
2023-03-17T05:36:37.571Z,17.07
2023-03-17T05:37:10.325Z,16.87
2023-03-17T05:37:41.946Z,17.97
2023-03-17T05:38:15.920Z,18.60
2023-03-17T05:38:47.632Z,17.67
2023-03-17T05:39:19.345Z,17.43
2023-03-17T05:39:52.677Z,17.30
2023-03-17T05:40:24.367Z,18.53
2023-03-17T05:40:56.112Z,18.57
2023-03-17T05:41:28.130Z,17.77
2023-03-17T05:41:59.804Z,17.60
2023-03-17T05:42:31.684Z,18.67
2023-03-17T05:43:04.348Z,18.90
2023-03-17T05:43:36.447Z,18.53
2023-03-17T05:44:08.836Z,17.93
2023-03-17T05:44:40.511Z,17.97
2023-03-17T05:45:12.366Z,17.83
2023-03-17T05:45:44.075Z,18.07
2023-03-17T05:46:16.427Z,18.40
2023-03-17T05:46:49.003Z,18.20
2023-03-17T05:47:20.977Z,18.70
2023-03-17T05:47:52.945Z,17.87
2023-03-17T05:48:24.647Z,18.57
2023-03-17T05:48:56.499Z,18.53
2023-03-17T05:49:28.518Z,19.07
2023-03-17T05:50:04.868Z,19.23
2023-03-17T05:50:36.619Z,19.63
2023-03-17T05:51:08.426Z,19.13
2023-03-17T05:51:41.909Z,19.80
2023-03-17T05:52:14.135Z,19.00
2023-03-17T05:52:45.855Z,18.70
2023-03-17T05:53:17.558Z,19.13
2023-03-17T05:53:49.239Z,19.20
2023-03-17T05:54:21.645Z,18.87
2023-03-17T05:54:54.570Z,19.30
2023-03-17T05:55:26.575Z,19.67
2023-03-17T05:55:58.211Z,19.47
2023-03-17T05:56:33.615Z,19.37
2023-03-17T05:57:05.445Z,18.70
2023-03-17T05:57:37.480Z,19.13
2023-03-17T05:58:09.620Z,18.90
2023-03-17T05:58:41.657Z,18.13
2023-03-17T05:59:15.644Z,18.97
2023-03-17T05:59:48.398Z,18.77
2023-03-17T06:00:21.590Z,17.83
2023-03-17T06:00:53.395Z,18.30
2023-03-17T06:01:25.109Z,18.83
2023-03-17T06:01:57.254Z,18.03
2023-03-17T06:02:29.457Z,18.90
2023-03-17T06:03:02.368Z,18.47
2023-03-17T06:03:34.489Z,17.93
2023-03-17T06:04:06.678Z,18.87
2023-03-17T06:04:39.009Z,18.37
2023-03-17T06:05:10.741Z,18.40
2023-03-17T06:05:42.510Z,17.63
2023-03-17T06:06:14.207Z,17.70
2023-03-17T06:06:46.345Z,18.17
2023-03-17T06:07:18.062Z,18.40
2023-03-17T06:07:54.970Z,18.93
2023-03-17T06:08:27.947Z,18.80
2023-03-17T06:09:00.189Z,18.70
2023-03-17T06:09:32.519Z,19.27
2023-03-17T06:10:05.274Z,19.43
2023-03-17T06:10:36.971Z,18.33
2023-03-17T06:11:08.610Z,19.00
2023-03-17T06:11:40.244Z,20.27
2023-03-17T06:12:11.913Z,19.67
2023-03-17T06:12:43.554Z,19.07
2023-03-17T06:13:15.890Z,19.20
2023-03-17T06:13:48.607Z,20.33
2023-03-17T06:14:20.492Z,20.23
2023-03-17T06:14:52.195Z,19.83
2023-03-17T06:15:23.912Z,20.87
2023-03-17T06:15:57.005Z,19.80
2023-03-17T06:16:30.805Z,20.13
2023-03-17T06:17:02.755Z,20.57
2023-03-17T06:17:34.504Z,20.70
2023-03-17T06:18:06.224Z,20.53
2023-03-17T06:18:37.935Z,20.20
2023-03-17T06:19:09.606Z,20.07
2023-03-17T06:19:41.803Z,19.73
2023-03-17T06:20:14.317Z,20.33
2023-03-17T06:20:45.990Z,20.67
2023-03-17T06:21:17.675Z,21.00
2023-03-17T06:21:49.527Z,20.73
2023-03-17T06:22:21.223Z,20.47
2023-03-17T06:23:03.832Z,20.17
2023-03-17T06:23:36.909Z,21.67
2023-03-17T06:24:09.714Z,22.00
2023-03-17T06:24:41.365Z,23.13
2023-03-17T06:25:13.737Z,24.40
2023-03-17T06:25:45.423Z,23.90
2023-03-17T06:26:17.374Z,25.97
2023-03-17T06:26:49.074Z,26.20
2023-03-17T06:27:20.873Z,27.17
2023-03-17T06:27:54.810Z,27.57
2023-03-17T06:28:26.485Z,27.03
2023-03-17T06:28:58.149Z,28.50
2023-03-17T06:29:30.127Z,30.00
2023-03-17T06:30:01.777Z,30.30
2023-03-17T06:30:34.813Z,30.50
2023-03-17T06:31:07.453Z,30.33
2023-03-17T06:31:40.548Z,31.57
2023-03-17T06:32:20.455Z,31.20
2023-03-17T06:32:52.641Z,31.10
2023-03-17T06:33:25.155Z,30.53
2023-03-17T06:33:57.558Z,30.90
2023-03-17T06:34:29.506Z,30.57
2023-03-17T06:35:01.960Z,32.03
2023-03-17T06:35:34.415Z,31.50
2023-03-17T06:36:06.554Z,32.80
2023-03-17T06:36:39.269Z,35.73
2023-03-17T06:37:10.916Z,34.40
2023-03-17T06:37:42.663Z,35.60
2023-03-17T06:38:14.322Z,35.33
2023-03-17T06:38:46.289Z,34.77
2023-03-17T06:39:21.143Z,36.47
2023-03-17T06:39:52.942Z,35.57
2023-03-17T06:40:24.609Z,34.43
2023-03-17T06:40:56.333Z,33.37
2023-03-17T06:41:28.459Z,33.27
2023-03-17T06:42:00.206Z,32.73
2023-03-17T06:42:31.885Z,31.03
2023-03-17T06:43:03.559Z,32.13
2023-03-17T06:43:36.258Z,31.87
2023-03-17T06:44:08.613Z,32.33
2023-03-17T06:44:40.764Z,33.67
2023-03-17T06:45:12.990Z,32.43
2023-03-17T06:45:44.639Z,32.53
2023-03-17T06:46:16.639Z,33.20
2023-03-17T06:46:49.218Z,32.13
2023-03-17T06:47:20.944Z,32.77
2023-03-17T06:47:53.012Z,32.50
2023-03-17T06:48:24.744Z,31.87
2023-03-17T06:48:56.419Z,33.63
2023-03-17T06:49:28.633Z,32.80
2023-03-17T06:50:00.297Z,32.57
2023-03-17T06:50:32.063Z,33.00
2023-03-17T06:51:04.290Z,31.77
2023-03-17T06:51:37.342Z,32.33
2023-03-17T06:52:09.125Z,32.97
2023-03-17T06:52:41.332Z,32.27
2023-03-17T06:53:13.927Z,31.50
2023-03-17T06:53:45.785Z,30.47
2023-03-17T06:54:18.253Z,30.67
2023-03-17T06:54:49.891Z,30.03
2023-03-17T06:55:21.675Z,33.63
2023-03-17T06:55:53.484Z,37.83
2023-03-17T06:56:30.246Z,32.10
2023-03-17T06:57:02.839Z,32.80
2023-03-17T06:57:34.855Z,31.43
2023-03-17T06:58:06.527Z,25.57
2023-03-17T06:58:38.165Z,24.17
2023-03-17T06:59:10.459Z,24.17
2023-03-17T06:59:42.121Z,22.97
2023-03-17T07:00:14.707Z,23.37
2023-03-17T07:00:48.920Z,23.67
2023-03-17T07:01:20.709Z,22.13
2023-03-17T07:01:52.477Z,20.10
2023-03-17T07:02:24.965Z,19.30
2023-03-17T07:02:57.799Z,18.07
2023-03-17T07:03:29.509Z,18.57